sensor_id;sensor_type;location;lat;lon;timestamp;P1;durP1;ratioP1;P2;durP2;ratioP2
23745;SDS011;12053;48.878;9.632;2022-09-27T00:01:34;1.88;;;1.55;;
23745;SDS011;12053;48.878;9.632;2022-09-27T00:04:01;3.05;;;1.95;;
23745;SDS011;12053;48.878;9.632;2022-09-27T00:06:29;1.35;;;1.25;;
23745;SDS011;12053;48.878;9.632;2022-09-27T00:08:56;3.47;;;1.55;;
23745;SDS011;12053;48.878;9.632;2022-09-27T00:11:27;1.77;;;1.40;;
23745;SDS011;12053;48.878;9.632;2022-09-27T00:13:55;1.63;;;1.45;;
23745;SDS011;12053;48.878;9.632;2022-09-27T00:16:25;1.65;;;1.55;;
23745;SDS011;12053;48.878;9.632;2022-09-27T00:18:57;1.58;;;1.45;;
23745;SDS011;12053;48.878;9.632;2022-09-27T00:21:25;2.17;;;1.70;;
23745;SDS011;12053;48.878;9.632;2022-09-27T00:23:52;1.70;;;1.60;;
23745;SDS011;12053;48.878;9.632;2022-09-27T00:26:19;1.50;;;1.38;;
23745;SDS011;12053;48.878;9.632;2022-09-27T00:28:47;1.85;;;1.58;;
23745;SDS011;12053;48.878;9.632;2022-09-27T00:33:48;1.90;;;1.13;;
23745;SDS011;12053;48.878;9.632;2022-09-27T00:36:16;1.27;;;1.17;;
23745;SDS011;12053;48.878;9.632;2022-09-27T00:38:43;2.67;;;1.13;;
23745;SDS011;12053;48.878;9.632;2022-09-27T00:41:14;1.30;;;1.20;;
23745;SDS011;12053;48.878;9.632;2022-09-27T00:43:46;7.00;;;1.20;;
23745;SDS011;12053;48.878;9.632;2022-09-27T00:46:17;1.85;;;1.13;;
23745;SDS011;12053;48.878;9.632;2022-09-27T00:48:45;1.30;;;1.20;;
23745;SDS011;12053;48.878;9.632;2022-09-27T00:51:12;1.95;;;1.15;;
23745;SDS011;12053;48.878;9.632;2022-09-27T00:53:41;1.05;;;0.93;;
23745;SDS011;12053;48.878;9.632;2022-09-27T00:56:12;1.45;;;1.33;;
23745;SDS011;12053;48.878;9.632;2022-09-27T00:58:44;1.65;;;1.25;;
23745;SDS011;12053;48.878;9.632;2022-09-27T01:01:12;2.28;;;1.88;;
23745;SDS011;12053;48.878;9.632;2022-09-27T01:06:25;2.78;;;1.20;;
23745;SDS011;12053;48.878;9.632;2022-09-27T01:08:52;1.25;;;0.90;;
23745;SDS011;12053;48.878;9.632;2022-09-27T01:21:47;1.27;;;1.00;;
23745;SDS011;12053;48.878;9.632;2022-09-27T01:29:17;4.40;;;1.10;;
23745;SDS011;12053;48.878;9.632;2022-09-27T01:32:36;1.23;;;1.13;;
23745;SDS011;12053;48.878;9.632;2022-09-27T01:37:18;3.47;;;1.20;;
23745;SDS011;12053;48.878;9.632;2022-09-27T01:42:40;1.38;;;1.15;;
23745;SDS011;12053;48.878;9.632;2022-09-27T01:47:44;1.27;;;0.90;;
23745;SDS011;12053;48.878;9.632;2022-09-27T01:50:14;1.30;;;0.80;;
23745;SDS011;12053;48.878;9.632;2022-09-27T01:53:02;0.80;;;0.80;;
23745;SDS011;12053;48.878;9.632;2022-09-27T01:55:31;1.02;;;1.00;;
23745;SDS011;12053;48.878;9.632;2022-09-27T01:58:13;2.05;;;1.10;;
23745;SDS011;12053;48.878;9.632;2022-09-27T02:00:43;1.23;;;1.13;;
23745;SDS011;12053;48.878;9.632;2022-09-27T02:03:17;1.23;;;1.13;;
23745;SDS011;12053;48.878;9.632;2022-09-27T02:05:52;0.90;;;0.90;;
23745;SDS011;12053;48.878;9.632;2022-09-27T02:08:22;1.60;;;0.98;;
23745;SDS011;12053;48.878;9.632;2022-09-27T02:10:51;4.03;;;1.02;;
23745;SDS011;12053;48.878;9.632;2022-09-27T02:13:25;5.88;;;1.10;;
23745;SDS011;12053;48.878;9.632;2022-09-27T02:16:05;1.23;;;1.00;;
23745;SDS011;12053;48.878;9.632;2022-09-27T02:18:56;1.35;;;1.10;;
23745;SDS011;12053;48.878;9.632;2022-09-27T02:21:30;1.67;;;0.90;;
23745;SDS011;12053;48.878;9.632;2022-09-27T02:23:59;1.30;;;1.05;;
23745;SDS011;12053;48.878;9.632;2022-09-27T02:26:36;1.30;;;1.20;;
23745;SDS011;12053;48.878;9.632;2022-09-27T02:31:34;1.38;;;1.10;;
23745;SDS011;12053;48.878;9.632;2022-09-27T02:34:06;1.10;;;1.00;;
23745;SDS011;12053;48.878;9.632;2022-09-27T02:36:34;0.93;;;0.90;;
23745;SDS011;12053;48.878;9.632;2022-09-27T02:39:02;1.20;;;1.10;;
23745;SDS011;12053;48.878;9.632;2022-09-27T02:41:29;0.90;;;0.90;;
23745;SDS011;12053;48.878;9.632;2022-09-27T02:44:01;0.98;;;0.90;;
23745;SDS011;12053;48.878;9.632;2022-09-27T02:46:42;1.27;;;0.98;;
23745;SDS011;12053;48.878;9.632;2022-09-27T02:49:20;1.38;;;1.10;;
23745;SDS011;12053;48.878;9.632;2022-09-27T02:59:52;1.48;;;1.15;;
23745;SDS011;12053;48.878;9.632;2022-09-27T03:02:23;1.75;;;0.93;;
23745;SDS011;12053;48.878;9.632;2022-09-27T03:04:55;1.08;;;1.00;;
23745;SDS011;12053;48.878;9.632;2022-09-27T03:07:25;1.48;;;1.13;;
23745;SDS011;12053;48.878;9.632;2022-09-27T03:09:53;1.60;;;1.20;;
23745;SDS011;12053;48.878;9.632;2022-09-27T03:12:20;1.10;;;1.08;;
23745;SDS011;12053;48.878;9.632;2022-09-27T03:14:52;1.35;;;1.10;;
23745;SDS011;12053;48.878;9.632;2022-09-27T03:17:20;0.90;;;0.90;;
23745;SDS011;12053;48.878;9.632;2022-09-27T03:19:47;0.88;;;0.73;;
23745;SDS011;12053;48.878;9.632;2022-09-27T03:22:15;1.05;;;0.95;;
23745;SDS011;12053;48.878;9.632;2022-09-27T03:24:42;2.83;;;0.85;;
23745;SDS011;12053;48.878;9.632;2022-09-27T03:27:09;2.88;;;1.10;;
23745;SDS011;12053;48.878;9.632;2022-09-27T03:29:36;1.20;;;1.10;;
23745;SDS011;12053;48.878;9.632;2022-09-27T03:32:03;2.30;;;1.27;;
23745;SDS011;12053;48.878;9.632;2022-09-27T03:34:30;2.60;;;1.25;;
23745;SDS011;12053;48.878;9.632;2022-09-27T03:36:57;3.53;;;1.17;;
23745;SDS011;12053;48.878;9.632;2022-09-27T03:39:25;3.63;;;1.38;;
23745;SDS011;12053;48.878;9.632;2022-09-27T03:41:52;3.40;;;1.20;;
23745;SDS011;12053;48.878;9.632;2022-09-27T03:44:19;5.07;;;1.67;;
23745;SDS011;12053;48.878;9.632;2022-09-27T03:46:46;8.10;;;1.70;;
23745;SDS011;12053;48.878;9.632;2022-09-27T03:49:13;4.53;;;1.40;;
23745;SDS011;12053;48.878;9.632;2022-09-27T03:51:41;3.72;;;1.67;;
23745;SDS011;12053;48.878;9.632;2022-09-27T03:54:08;4.40;;;1.80;;
23745;SDS011;12053;48.878;9.632;2022-09-27T03:56:35;3.17;;;1.70;;
23745;SDS011;12053;48.878;9.632;2022-09-27T03:59:02;5.05;;;1.98;;
23745;SDS011;12053;48.878;9.632;2022-09-27T04:01:30;2.33;;;1.48;;
23745;SDS011;12053;48.878;9.632;2022-09-27T04:03:57;3.67;;;1.80;;
23745;SDS011;12053;48.878;9.632;2022-09-27T04:06:24;5.40;;;1.73;;
23745;SDS011;12053;48.878;9.632;2022-09-27T04:08:52;4.50;;;2.15;;
23745;SDS011;12053;48.878;9.632;2022-09-27T04:11:19;7.70;;;1.92;;
23745;SDS011;12053;48.878;9.632;2022-09-27T04:13:49;4.40;;;2.00;;
23745;SDS011;12053;48.878;9.632;2022-09-27T04:16:16;5.28;;;2.08;;
23745;SDS011;12053;48.878;9.632;2022-09-27T04:18:44;3.15;;;1.90;;
23745;SDS011;12053;48.878;9.632;2022-09-27T04:21:11;5.00;;;2.05;;
23745;SDS011;12053;48.878;9.632;2022-09-27T04:23:38;4.63;;;1.90;;
23745;SDS011;12053;48.878;9.632;2022-09-27T04:26:06;5.50;;;2.90;;
23745;SDS011;12053;48.878;9.632;2022-09-27T04:28:33;4.82;;;2.50;;
23745;SDS011;12053;48.878;9.632;2022-09-27T04:31:00;5.45;;;2.08;;
23745;SDS011;12053;48.878;9.632;2022-09-27T04:33:28;5.35;;;2.15;;
23745;SDS011;12053;48.878;9.632;2022-09-27T04:35:55;6.28;;;2.35;;
23745;SDS011;12053;48.878;9.632;2022-09-27T04:38:41;5.25;;;1.92;;
23745;SDS011;12053;48.878;9.632;2022-09-27T04:41:08;7.88;;;2.67;;
23745;SDS011;12053;48.878;9.632;2022-09-27T04:43:35;4.70;;;2.80;;
23745;SDS011;12053;48.878;9.632;2022-09-27T04:46:02;10.65;;;5.43;;
23745;SDS011;12053;48.878;9.632;2022-09-27T04:48:30;10.07;;;3.00;;
23745;SDS011;12053;48.878;9.632;2022-09-27T04:50:57;3.85;;;2.10;;
23745;SDS011;12053;48.878;9.632;2022-09-27T04:53:25;8.20;;;2.90;;
23745;SDS011;12053;48.878;9.632;2022-09-27T04:55:52;11.57;;;6.53;;
23745;SDS011;12053;48.878;9.632;2022-09-27T04:58:20;5.78;;;3.45;;
23745;SDS011;12053;48.878;9.632;2022-09-27T05:00:48;8.13;;;3.30;;
23745;SDS011;12053;48.878;9.632;2022-09-27T05:03:17;8.90;;;3.03;;
23745;SDS011;12053;48.878;9.632;2022-09-27T05:05:44;4.93;;;2.50;;
23745;SDS011;12053;48.878;9.632;2022-09-27T05:08:11;6.47;;;3.35;;
23745;SDS011;12053;48.878;9.632;2022-09-27T05:10:39;9.20;;;3.00;;
23745;SDS011;12053;48.878;9.632;2022-09-27T05:13:06;7.65;;;2.88;;
23745;SDS011;12053;48.878;9.632;2022-09-27T05:15:33;7.40;;;3.33;;
23745;SDS011;12053;48.878;9.632;2022-09-27T05:18:01;6.97;;;3.20;;
23745;SDS011;12053;48.878;9.632;2022-09-27T05:20:28;4.20;;;2.90;;
23745;SDS011;12053;48.878;9.632;2022-09-27T05:22:55;11.00;;;3.10;;
23745;SDS011;12053;48.878;9.632;2022-09-27T05:25:22;6.32;;;2.97;;
23745;SDS011;12053;48.878;9.632;2022-09-27T05:27:50;12.43;;;3.85;;
23745;SDS011;12053;48.878;9.632;2022-09-27T05:30:17;10.38;;;3.55;;
23745;SDS011;12053;48.878;9.632;2022-09-27T05:32:45;8.50;;;3.70;;
23745;SDS011;12053;48.878;9.632;2022-09-27T05:35:16;6.57;;;3.30;;
23745;SDS011;12053;48.878;9.632;2022-09-27T05:37:50;9.60;;;3.40;;
23745;SDS011;12053;48.878;9.632;2022-09-27T05:40:17;10.27;;;4.13;;
23745;SDS011;12053;48.878;9.632;2022-09-27T05:43:05;6.07;;;3.50;;
23745;SDS011;12053;48.878;9.632;2022-09-27T05:45:32;7.85;;;3.88;;
23745;SDS011;12053;48.878;9.632;2022-09-27T05:48:00;6.43;;;3.75;;
23745;SDS011;12053;48.878;9.632;2022-09-27T05:50:27;5.38;;;3.42;;
23745;SDS011;12053;48.878;9.632;2022-09-27T05:52:54;7.97;;;3.83;;
23745;SDS011;12053;48.878;9.632;2022-09-27T05:55:21;7.78;;;3.17;;
23745;SDS011;12053;48.878;9.632;2022-09-27T05:57:56;5.72;;;4.07;;
23745;SDS011;12053;48.878;9.632;2022-09-27T06:00:23;3.85;;;2.72;;
23745;SDS011;12053;48.878;9.632;2022-09-27T06:02:58;6.10;;;3.47;;
23745;SDS011;12053;48.878;9.632;2022-09-27T06:05:26;6.53;;;3.75;;
23745;SDS011;12053;48.878;9.632;2022-09-27T06:08:00;3.47;;;3.00;;
23745;SDS011;12053;48.878;9.632;2022-09-27T06:10:28;6.18;;;3.10;;
23745;SDS011;12053;48.878;9.632;2022-09-27T06:13:02;6.47;;;3.47;;
23745;SDS011;12053;48.878;9.632;2022-09-27T06:15:30;3.78;;;2.63;;
23745;SDS011;12053;48.878;9.632;2022-09-27T06:18:01;3.33;;;2.60;;
23745;SDS011;12053;48.878;9.632;2022-09-27T06:20:29;4.15;;;1.95;;
23745;SDS011;12053;48.878;9.632;2022-09-27T06:23:10;4.45;;;2.20;;
23745;SDS011;12053;48.878;9.632;2022-09-27T06:25:37;3.80;;;2.20;;
23745;SDS011;12053;48.878;9.632;2022-09-27T06:28:05;4.50;;;2.42;;
23745;SDS011;12053;48.878;9.632;2022-09-27T06:30:33;5.80;;;2.40;;
23745;SDS011;12053;48.878;9.632;2022-09-27T06:33:00;5.00;;;2.65;;
23745;SDS011;12053;48.878;9.632;2022-09-27T06:35:28;4.75;;;2.55;;
23745;SDS011;12053;48.878;9.632;2022-09-27T06:37:56;4.30;;;1.98;;
23745;SDS011;12053;48.878;9.632;2022-09-27T06:40:23;7.57;;;2.63;;
23745;SDS011;12053;48.878;9.632;2022-09-27T06:42:52;4.80;;;1.73;;
23745;SDS011;12053;48.878;9.632;2022-09-27T06:45:19;4.50;;;2.35;;
23745;SDS011;12053;48.878;9.632;2022-09-27T06:47:46;3.58;;;2.30;;
23745;SDS011;12053;48.878;9.632;2022-09-27T06:50:13;5.80;;;2.50;;
23745;SDS011;12053;48.878;9.632;2022-09-27T06:52:48;4.18;;;2.72;;
23745;SDS011;12053;48.878;9.632;2022-09-27T06:55:15;5.82;;;2.50;;
23745;SDS011;12053;48.878;9.632;2022-09-27T06:57:42;4.75;;;2.70;;
23745;SDS011;12053;48.878;9.632;2022-09-27T07:00:28;6.15;;;2.60;;
23745;SDS011;12053;48.878;9.632;2022-09-27T07:02:56;3.33;;;2.40;;
23745;SDS011;12053;48.878;9.632;2022-09-27T07:05:27;5.30;;;2.83;;
23745;SDS011;12053;48.878;9.632;2022-09-27T07:07:55;4.35;;;2.47;;
23745;SDS011;12053;48.878;9.632;2022-09-27T07:10:27;2.85;;;2.15;;
23745;SDS011;12053;48.878;9.632;2022-09-27T07:12:55;4.10;;;2.35;;
23745;SDS011;12053;48.878;9.632;2022-09-27T07:15:23;4.80;;;2.30;;
23745;SDS011;12053;48.878;9.632;2022-09-27T07:17:57;3.42;;;2.10;;
23745;SDS011;12053;48.878;9.632;2022-09-27T07:20:24;3.10;;;1.60;;
23745;SDS011;12053;48.878;9.632;2022-09-27T07:22:52;3.53;;;1.65;;
23745;SDS011;12053;48.878;9.632;2022-09-27T07:25:19;3.25;;;1.63;;
23745;SDS011;12053;48.878;9.632;2022-09-27T07:27:47;5.60;;;2.60;;
23745;SDS011;12053;48.878;9.632;2022-09-27T07:30:14;1.70;;;1.40;;
23745;SDS011;12053;48.878;9.632;2022-09-27T07:32:42;2.28;;;1.00;;
23745;SDS011;12053;48.878;9.632;2022-09-27T07:35:09;1.35;;;1.25;;
23745;SDS011;12053;48.878;9.632;2022-09-27T07:37:36;2.25;;;1.38;;
23745;SDS011;12053;48.878;9.632;2022-09-27T07:40:05;1.13;;;1.02;;
23745;SDS011;12053;48.878;9.632;2022-09-27T07:42:34;2.42;;;1.25;;
23745;SDS011;12053;48.878;9.632;2022-09-27T07:45:07;1.38;;;1.05;;
23745;SDS011;12053;48.878;9.632;2022-09-27T07:47:34;3.13;;;1.30;;
23745;SDS011;12053;48.878;9.632;2022-09-27T07:50:04;2.17;;;0.90;;
23745;SDS011;12053;48.878;9.632;2022-09-27T07:52:37;1.25;;;0.80;;
23745;SDS011;12053;48.878;9.632;2022-09-27T07:55:06;0.85;;;0.85;;
23745;SDS011;12053;48.878;9.632;2022-09-27T07:57:33;0.80;;;0.77;;
23745;SDS011;12053;48.878;9.632;2022-09-27T08:00:01;2.38;;;0.77;;
23745;SDS011;12053;48.878;9.632;2022-09-27T08:02:28;0.98;;;0.70;;
23745;SDS011;12053;48.878;9.632;2022-09-27T08:04:59;1.23;;;1.02;;
23745;SDS011;12053;48.878;9.632;2022-09-27T08:07:27;0.80;;;0.80;;
23745;SDS011;12053;48.878;9.632;2022-09-27T08:09:54;0.75;;;0.75;;
23745;SDS011;12053;48.878;9.632;2022-09-27T08:12:21;1.65;;;0.80;;
23745;SDS011;12053;48.878;9.632;2022-09-27T08:14:48;1.52;;;1.13;;
23745;SDS011;12053;48.878;9.632;2022-09-27T08:17:16;2.08;;;1.10;;
23745;SDS011;12053;48.878;9.632;2022-09-27T08:19:43;4.60;;;1.20;;
23745;SDS011;12053;48.878;9.632;2022-09-27T08:22:11;1.02;;;1.02;;
23745;SDS011;12053;48.878;9.632;2022-09-27T08:24:39;2.33;;;1.55;;
23745;SDS011;12053;48.878;9.632;2022-09-27T08:27:07;2.35;;;1.27;;
23745;SDS011;12053;48.878;9.632;2022-09-27T08:29:37;1.27;;;1.20;;
23745;SDS011;12053;48.878;9.632;2022-09-27T08:32:10;3.47;;;1.50;;
23745;SDS011;12053;48.878;9.632;2022-09-27T08:34:37;3.55;;;1.33;;
23745;SDS011;12053;48.878;9.632;2022-09-27T08:37:05;1.25;;;1.15;;
23745;SDS011;12053;48.878;9.632;2022-09-27T08:39:32;2.92;;;1.30;;
23745;SDS011;12053;48.878;9.632;2022-09-27T08:52:14;2.97;;;1.70;;
23745;SDS011;12053;48.878;9.632;2022-09-27T08:54:42;3.78;;;2.20;;
23745;SDS011;12053;48.878;9.632;2022-09-27T08:57:10;3.40;;;2.60;;
23745;SDS011;12053;48.878;9.632;2022-09-27T09:02:21;4.68;;;2.20;;
23745;SDS011;12053;48.878;9.632;2022-09-27T09:04:53;2.15;;;1.95;;
23745;SDS011;12053;48.878;9.632;2022-09-27T09:09:53;2.20;;;2.00;;
23745;SDS011;12053;48.878;9.632;2022-09-27T09:12:41;1.88;;;1.65;;
23745;SDS011;12053;48.878;9.632;2022-09-27T09:28:48;1.83;;;1.60;;
23745;SDS011;12053;48.878;9.632;2022-09-27T09:36:28;3.60;;;1.50;;
23745;SDS011;12053;48.878;9.632;2022-09-27T09:39:04;4.28;;;1.70;;
23745;SDS011;12053;48.878;9.632;2022-09-27T09:47:11;1.88;;;1.45;;
23745;SDS011;12053;48.878;9.632;2022-09-27T09:52:10;2.45;;;1.73;;
23745;SDS011;12053;48.878;9.632;2022-09-27T09:54:41;3.05;;;2.00;;
23745;SDS011;12053;48.878;9.632;2022-09-27T09:57:21;2.95;;;2.20;;
23745;SDS011;12053;48.878;9.632;2022-09-27T10:00:04;3.85;;;2.50;;
23745;SDS011;12053;48.878;9.632;2022-09-27T10:02:37;6.82;;;2.53;;
23745;SDS011;12053;48.878;9.632;2022-09-27T10:05:05;8.30;;;3.35;;
23745;SDS011;12053;48.878;9.632;2022-09-27T10:07:33;2.88;;;1.98;;
23745;SDS011;12053;48.878;9.632;2022-09-27T10:10:02;5.25;;;1.60;;
23745;SDS011;12053;48.878;9.632;2022-09-27T10:12:30;3.33;;;1.65;;
23745;SDS011;12053;48.878;9.632;2022-09-27T10:14:58;1.83;;;1.10;;
23745;SDS011;12053;48.878;9.632;2022-09-27T10:17:37;2.47;;;1.33;;
23745;SDS011;12053;48.878;9.632;2022-09-27T10:20:06;2.75;;;1.65;;
23745;SDS011;12053;48.878;9.632;2022-09-27T10:22:37;1.30;;;1.10;;
23745;SDS011;12053;48.878;9.632;2022-09-27T10:25:06;4.70;;;1.70;;
23745;SDS011;12053;48.878;9.632;2022-09-27T10:27:38;4.13;;;1.40;;
23745;SDS011;12053;48.878;9.632;2022-09-27T10:30:11;3.15;;;1.17;;
23745;SDS011;12053;48.878;9.632;2022-09-27T10:32:48;3.20;;;1.38;;
23745;SDS011;12053;48.878;9.632;2022-09-27T10:35:31;2.15;;;0.88;;
23745;SDS011;12053;48.878;9.632;2022-09-27T10:40:42;2.60;;;1.30;;
23745;SDS011;12053;48.878;9.632;2022-09-27T10:43:43;1.48;;;1.38;;
23745;SDS011;12053;48.878;9.632;2022-09-27T10:46:05;3.38;;;1.70;;
23745;SDS011;12053;48.878;9.632;2022-09-27T10:48:35;2.90;;;1.37;;
23745;SDS011;12053;48.878;9.632;2022-09-27T10:51:04;3.53;;;1.40;;
23745;SDS011;12053;48.878;9.632;2022-09-27T10:53:31;2.95;;;1.75;;
23745;SDS011;12053;48.878;9.632;2022-09-27T10:56:00;3.05;;;1.70;;
23745;SDS011;12053;48.878;9.632;2022-09-27T10:58:29;3.10;;;1.77;;
23745;SDS011;12053;48.878;9.632;2022-09-27T11:00:58;4.28;;;1.60;;
23745;SDS011;12053;48.878;9.632;2022-09-27T11:03:29;4.00;;;1.85;;
23745;SDS011;12053;48.878;9.632;2022-09-27T11:05:57;2.72;;;1.35;;
23745;SDS011;12053;48.878;9.632;2022-09-27T11:08:28;4.95;;;1.60;;
23745;SDS011;12053;48.878;9.632;2022-09-27T11:14:05;2.25;;;1.40;;
23745;SDS011;12053;48.878;9.632;2022-09-27T11:40:26;4.32;;;1.52;;
23745;SDS011;12053;48.878;9.632;2022-09-27T11:59:04;2.65;;;1.88;;
23745;SDS011;12053;48.878;9.632;2022-09-27T12:01:55;3.70;;;1.58;;
23745;SDS011;12053;48.878;9.632;2022-09-27T12:09:41;2.38;;;1.60;;
23745;SDS011;12053;48.878;9.632;2022-09-27T12:20:29;4.95;;;2.03;;
23745;SDS011;12053;48.878;9.632;2022-09-27T12:25:28;1.85;;;0.82;;
23745;SDS011;12053;48.878;9.632;2022-09-27T12:30:36;1.00;;;0.88;;
23745;SDS011;12053;48.878;9.632;2022-09-27T12:35:51;3.20;;;0.73;;
23745;SDS011;12053;48.878;9.632;2022-09-27T12:41:06;1.23;;;1.10;;
23745;SDS011;12053;48.878;9.632;2022-09-27T12:43:35;4.07;;;2.05;;
23745;SDS011;12053;48.878;9.632;2022-09-27T12:49:15;3.55;;;1.65;;
23745;SDS011;12053;48.878;9.632;2022-09-27T12:51:48;4.05;;;2.15;;
23745;SDS011;12053;48.878;9.632;2022-09-27T12:54:29;8.68;;;3.28;;
23745;SDS011;12053;48.878;9.632;2022-09-27T13:00:05;1.55;;;1.20;;
23745;SDS011;12053;48.878;9.632;2022-09-27T13:10:54;1.77;;;1.37;;
23745;SDS011;12053;48.878;9.632;2022-09-27T13:13:23;1.88;;;0.90;;
23745;SDS011;12053;48.878;9.632;2022-09-27T13:15:54;1.67;;;1.20;;
23745;SDS011;12053;48.878;9.632;2022-09-27T13:21:07;1.00;;;0.88;;
23745;SDS011;12053;48.878;9.632;2022-09-27T13:26:02;2.13;;;1.20;;
23745;SDS011;12053;48.878;9.632;2022-09-27T13:31:01;2.47;;;1.33;;
23745;SDS011;12053;48.878;9.632;2022-09-27T13:44:26;2.97;;;1.10;;
23745;SDS011;12053;48.878;9.632;2022-09-27T13:46:57;0.88;;;0.88;;
23745;SDS011;12053;48.878;9.632;2022-09-27T13:52:01;7.00;;;5.07;;
23745;SDS011;12053;48.878;9.632;2022-09-27T13:54:39;1.50;;;1.40;;
23745;SDS011;12053;48.878;9.632;2022-09-27T13:57:54;2.60;;;1.90;;
23745;SDS011;12053;48.878;9.632;2022-09-27T13:59:54;1.48;;;1.38;;
23745;SDS011;12053;48.878;9.632;2022-09-27T14:04:50;1.92;;;1.77;;
23745;SDS011;12053;48.878;9.632;2022-09-27T14:07:18;2.00;;;1.73;;
23745;SDS011;12053;48.878;9.632;2022-09-27T14:09:48;2.15;;;1.30;;
23745;SDS011;12053;48.878;9.632;2022-09-27T14:12:24;2.08;;;1.50;;
23745;SDS011;12053;48.878;9.632;2022-09-27T14:14:53;4.40;;;3.38;;
23745;SDS011;12053;48.878;9.632;2022-09-27T14:17:21;2.13;;;1.60;;
23745;SDS011;12053;48.878;9.632;2022-09-27T14:19:48;1.40;;;1.30;;
23745;SDS011;12053;48.878;9.632;2022-09-27T14:22:18;2.00;;;0.90;;
23745;SDS011;12053;48.878;9.632;2022-09-27T14:24:50;0.68;;;0.68;;
23745;SDS011;12053;48.878;9.632;2022-09-27T14:27:20;3.83;;;1.20;;
23745;SDS011;12053;48.878;9.632;2022-09-27T14:29:49;1.52;;;1.40;;
23745;SDS011;12053;48.878;9.632;2022-09-27T14:32:22;3.13;;;2.80;;
23745;SDS011;12053;48.878;9.632;2022-09-27T14:35:32;3.97;;;3.25;;
23745;SDS011;12053;48.878;9.632;2022-09-27T14:37:58;3.05;;;2.28;;
23745;SDS011;12053;48.878;9.632;2022-09-27T14:43:19;2.15;;;1.08;;
23745;SDS011;12053;48.878;9.632;2022-09-27T14:45:48;0.98;;;0.77;;
23745;SDS011;12053;48.878;9.632;2022-09-27T14:48:26;1.48;;;1.17;;
23745;SDS011;12053;48.878;9.632;2022-09-27T14:53:44;2.53;;;1.10;;
23745;SDS011;12053;48.878;9.632;2022-09-27T14:56:13;1.48;;;1.25;;
23745;SDS011;12053;48.878;9.632;2022-09-27T14:58:43;1.45;;;1.20;;
23745;SDS011;12053;48.878;9.632;2022-09-27T15:01:14;2.55;;;1.48;;
23745;SDS011;12053;48.878;9.632;2022-09-27T15:03:42;1.92;;;1.42;;
23745;SDS011;12053;48.878;9.632;2022-09-27T15:06:10;4.20;;;1.48;;
23745;SDS011;12053;48.878;9.632;2022-09-27T15:08:38;1.10;;;1.00;;
23745;SDS011;12053;48.878;9.632;2022-09-27T15:11:05;3.78;;;1.73;;
23745;SDS011;12053;48.878;9.632;2022-09-27T15:13:35;4.32;;;3.55;;
23745;SDS011;12053;48.878;9.632;2022-09-27T15:16:14;1.98;;;1.40;;
23745;SDS011;12053;48.878;9.632;2022-09-27T15:18:44;4.13;;;2.08;;
23745;SDS011;12053;48.878;9.632;2022-09-27T15:21:14;2.38;;;1.75;;
23745;SDS011;12053;48.878;9.632;2022-09-27T15:23:42;2.63;;;1.17;;
23745;SDS011;12053;48.878;9.632;2022-09-27T15:26:13;3.08;;;1.33;;
23745;SDS011;12053;48.878;9.632;2022-09-27T15:28:45;1.80;;;1.52;;
23745;SDS011;12053;48.878;9.632;2022-09-27T15:31:13;9.03;;;6.10;;
23745;SDS011;12053;48.878;9.632;2022-09-27T15:33:40;11.18;;;5.90;;
23745;SDS011;12053;48.878;9.632;2022-09-27T15:36:09;4.50;;;3.53;;
23745;SDS011;12053;48.878;9.632;2022-09-27T15:38:37;3.58;;;1.73;;
23745;SDS011;12053;48.878;9.632;2022-09-27T15:41:14;4.63;;;2.92;;
23745;SDS011;12053;48.878;9.632;2022-09-27T15:43:45;7.25;;;4.22;;
23745;SDS011;12053;48.878;9.632;2022-09-27T15:52:09;22.48;;;12.82;;
23745;SDS011;12053;48.878;9.632;2022-09-27T15:54:30;2.00;;;1.80;;
23745;SDS011;12053;48.878;9.632;2022-09-27T15:57:02;2.05;;;1.48;;
23745;SDS011;12053;48.878;9.632;2022-09-27T15:59:31;2.90;;;1.63;;
23745;SDS011;12053;48.878;9.632;2022-09-27T16:02:00;4.03;;;3.60;;
23745;SDS011;12053;48.878;9.632;2022-09-27T16:04:33;3.05;;;2.38;;
23745;SDS011;12053;48.878;9.632;2022-09-27T16:07:00;3.20;;;2.22;;
23745;SDS011;12053;48.878;9.632;2022-09-27T16:09:29;2.20;;;2.00;;
23745;SDS011;12053;48.878;9.632;2022-09-27T16:11:57;2.50;;;1.90;;
23745;SDS011;12053;48.878;9.632;2022-09-27T16:14:24;3.20;;;1.77;;
23745;SDS011;12053;48.878;9.632;2022-09-27T16:16:52;2.92;;;1.77;;
23745;SDS011;12053;48.878;9.632;2022-09-27T16:19:20;2.03;;;1.20;;
23745;SDS011;12053;48.878;9.632;2022-09-27T16:21:47;2.25;;;2.05;;
23745;SDS011;12053;48.878;9.632;2022-09-27T16:24:15;6.28;;;3.97;;
23745;SDS011;12053;48.878;9.632;2022-09-27T16:26:42;5.00;;;3.20;;
23745;SDS011;12053;48.878;9.632;2022-09-27T16:29:10;3.85;;;3.50;;
23745;SDS011;12053;48.878;9.632;2022-09-27T16:31:39;1.80;;;1.70;;
23745;SDS011;12053;48.878;9.632;2022-09-27T16:34:09;1.35;;;1.25;;
23745;SDS011;12053;48.878;9.632;2022-09-27T16:36:37;1.70;;;1.60;;
23745;SDS011;12053;48.878;9.632;2022-09-27T16:39:09;26.02;;;16.75;;
23745;SDS011;12053;48.878;9.632;2022-09-27T16:41:38;17.30;;;10.90;;
23745;SDS011;12053;48.878;9.632;2022-09-27T16:44:10;38.10;;;24.23;;
23745;SDS011;12053;48.878;9.632;2022-09-27T16:46:38;23.80;;;16.13;;
23745;SDS011;12053;48.878;9.632;2022-09-27T16:49:06;21.02;;;13.05;;
23745;SDS011;12053;48.878;9.632;2022-09-27T16:51:56;13.25;;;8.93;;
23745;SDS011;12053;48.878;9.632;2022-09-27T16:54:27;13.43;;;8.00;;
23745;SDS011;12053;48.878;9.632;2022-09-27T16:56:55;9.13;;;7.53;;
23745;SDS011;12053;48.878;9.632;2022-09-27T16:59:22;5.97;;;5.03;;
23745;SDS011;12053;48.878;9.632;2022-09-27T17:01:52;2.30;;;2.08;;
23745;SDS011;12053;48.878;9.632;2022-09-27T17:04:23;3.00;;;2.00;;
23745;SDS011;12053;48.878;9.632;2022-09-27T17:06:50;5.05;;;1.50;;
23745;SDS011;12053;48.878;9.632;2022-09-27T17:09:18;4.82;;;1.38;;
23745;SDS011;12053;48.878;9.632;2022-09-27T17:11:45;5.95;;;1.50;;
23745;SDS011;12053;48.878;9.632;2022-09-27T17:14:13;6.63;;;2.08;;
23745;SDS011;12053;48.878;9.632;2022-09-27T17:16:42;4.88;;;3.90;;
23745;SDS011;12053;48.878;9.632;2022-09-27T17:19:10;3.30;;;2.05;;
23745;SDS011;12053;48.878;9.632;2022-09-27T17:21:38;3.75;;;1.73;;
23745;SDS011;12053;48.878;9.632;2022-09-27T17:24:06;4.45;;;2.15;;
23745;SDS011;12053;48.878;9.632;2022-09-27T17:26:33;2.55;;;1.40;;
23745;SDS011;12053;48.878;9.632;2022-09-27T17:29:00;2.30;;;1.52;;
23745;SDS011;12053;48.878;9.632;2022-09-27T17:31:27;2.35;;;1.60;;
23745;SDS011;12053;48.878;9.632;2022-09-27T17:33:56;5.35;;;2.25;;
23745;SDS011;12053;48.878;9.632;2022-09-27T17:36:26;4.05;;;1.45;;
23745;SDS011;12053;48.878;9.632;2022-09-27T17:38:53;2.10;;;1.48;;
23745;SDS011;12053;48.878;9.632;2022-09-27T17:41:22;3.80;;;1.30;;
23745;SDS011;12053;48.878;9.632;2022-09-27T17:43:56;11.50;;;6.93;;
23745;SDS011;12053;48.878;9.632;2022-09-27T17:46:25;4.97;;;2.15;;
23745;SDS011;12053;48.878;9.632;2022-09-27T17:48:52;3.58;;;2.00;;
23745;SDS011;12053;48.878;9.632;2022-09-27T17:51:39;2.40;;;1.70;;
23745;SDS011;12053;48.878;9.632;2022-09-27T17:54:06;2.63;;;2.30;;
23745;SDS011;12053;48.878;9.632;2022-09-27T17:56:35;2.92;;;2.33;;
23745;SDS011;12053;48.878;9.632;2022-09-27T17:59:03;6.07;;;2.85;;
23745;SDS011;12053;48.878;9.632;2022-09-27T18:01:30;4.35;;;3.30;;
23745;SDS011;12053;48.878;9.632;2022-09-27T18:03:59;3.13;;;1.92;;
23745;SDS011;12053;48.878;9.632;2022-09-27T18:06:27;4.28;;;3.10;;
23745;SDS011;12053;48.878;9.632;2022-09-27T18:08:54;4.53;;;2.28;;
23745;SDS011;12053;48.878;9.632;2022-09-27T18:11:23;5.15;;;2.63;;
23745;SDS011;12053;48.878;9.632;2022-09-27T18:13:56;2.88;;;1.30;;
23745;SDS011;12053;48.878;9.632;2022-09-27T18:16:27;5.93;;;1.80;;
23745;SDS011;12053;48.878;9.632;2022-09-27T18:18:56;4.13;;;1.70;;
23745;SDS011;12053;48.878;9.632;2022-09-27T18:21:23;2.25;;;1.75;;
23745;SDS011;12053;48.878;9.632;2022-09-27T18:23:52;3.08;;;2.10;;
23745;SDS011;12053;48.878;9.632;2022-09-27T18:26:20;3.88;;;2.03;;